createdAt,value
2023-01-13T00:01:23.879Z,7.53
2023-01-13T00:04:11.119Z,7.52
2023-01-13T00:06:57.052Z,7.50
2023-01-13T00:09:42.581Z,7.49
2023-01-13T00:12:27.878Z,7.46
2023-01-13T00:15:13.477Z,7.48
2023-01-13T00:17:59.357Z,7.44
2023-01-13T00:20:45.051Z,7.43
2023-01-13T00:23:32.459Z,7.41
2023-01-13T00:26:21.905Z,7.37
2023-01-13T00:29:07.303Z,7.37
2023-01-13T00:31:52.616Z,7.33
2023-01-13T00:34:38.050Z,7.29
2023-01-13T00:37:23.651Z,7.26
2023-01-13T00:40:09.862Z,7.25
2023-01-13T00:43:13.762Z,7.25
2023-01-13T00:45:59.935Z,7.27
2023-01-13T00:48:49.009Z,7.28
2023-01-13T00:51:36.369Z,7.28
2023-01-13T00:54:23.057Z,7.30
2023-01-13T00:57:08.965Z,7.31
2023-01-13T00:59:54.281Z,7.32
2023-01-13T01:02:39.802Z,7.34
2023-01-13T01:05:25.094Z,7.33
2023-01-13T01:08:10.502Z,7.34
2023-01-13T01:11:08.228Z,7.34
2023-01-13T01:13:56.026Z,7.38
2023-01-13T01:16:41.843Z,7.39
2023-01-13T01:19:27.137Z,7.38
2023-01-13T01:22:12.472Z,7.37
2023-01-13T01:25:00.738Z,7.41
2023-01-13T01:27:46.168Z,7.43
2023-01-13T01:30:31.549Z,7.45
2023-01-13T01:33:16.886Z,7.45
2023-01-13T01:36:03.524Z,7.47
2023-01-13T01:38:49.872Z,7.46
2023-01-13T01:41:36.988Z,7.48
2023-01-13T01:44:59.908Z,7.49
2023-01-13T01:47:50.119Z,7.51
2023-01-13T01:50:36.963Z,7.51
2023-01-13T01:53:26.377Z,7.51
2023-01-13T01:56:11.550Z,7.55
2023-01-13T01:58:57.207Z,7.53
2023-01-13T02:01:44.253Z,7.56
2023-01-13T02:04:34.756Z,7.54
2023-01-13T02:07:25.358Z,7.55
2023-01-13T02:10:14.112Z,7.57
2023-01-13T02:13:02.731Z,7.58
2023-01-13T02:16:08.559Z,7.55
2023-01-13T02:19:15.829Z,7.53
2023-01-13T02:22:38.931Z,7.53
2023-01-13T02:25:33.296Z,7.54
2023-01-13T02:29:08.388Z,7.53
2023-01-13T02:32:02.874Z,7.54
2023-01-13T02:35:13.300Z,7.54
2023-01-13T02:38:00.962Z,7.56
2023-01-13T02:40:55.863Z,7.54
2023-01-13T02:44:00.793Z,7.56
2023-01-13T02:46:52.168Z,7.54
2023-01-13T02:49:42.463Z,7.59
2023-01-13T02:52:58.783Z,7.58
2023-01-13T02:55:48.699Z,7.58
2023-01-13T02:58:36.918Z,7.59
2023-01-13T03:01:22.604Z,7.61
2023-01-13T03:04:45.764Z,7.63
2023-01-13T03:07:46.151Z,7.61
2023-01-13T03:10:50.114Z,7.61
2023-01-13T03:13:50.103Z,7.59
2023-01-13T03:17:01.633Z,7.59
2023-01-13T03:19:56.401Z,7.60
2023-01-13T03:23:09.695Z,7.60
2023-01-13T03:26:15.802Z,7.61
2023-01-13T03:29:52.045Z,7.62
2023-01-13T03:32:44.429Z,7.63
2023-01-13T03:35:38.199Z,7.65
2023-01-13T03:38:32.229Z,7.68
2023-01-13T03:41:23.439Z,7.72
2023-01-13T03:44:23.718Z,7.75
2023-01-13T03:47:38.143Z,7.76
2023-01-13T03:50:28.526Z,7.79
2023-01-13T03:53:28.378Z,7.77
2023-01-13T03:56:22.255Z,7.79
2023-01-13T03:59:12.068Z,7.80
2023-01-13T04:02:06.951Z,7.81
2023-01-13T04:04:59.862Z,7.80
2023-01-13T04:08:15.747Z,7.80
2023-01-13T04:11:07.756Z,7.81
2023-01-13T04:13:55.267Z,7.84
2023-01-13T04:16:41.861Z,7.86
2023-01-13T04:19:27.162Z,7.86
2023-01-13T04:22:12.614Z,7.84
2023-01-13T04:24:57.988Z,7.83
2023-01-13T04:27:43.340Z,7.81
2023-01-13T04:30:28.852Z,7.77
2023-01-13T04:33:15.195Z,7.77
2023-01-13T04:36:00.778Z,7.71
2023-01-13T04:38:45.985Z,7.68
2023-01-13T04:41:54.041Z,7.65
2023-01-13T04:44:39.466Z,7.60
2023-01-13T04:47:25.013Z,7.59
2023-01-13T04:50:11.762Z,7.58
2023-01-13T04:52:57.148Z,7.56
2023-01-13T04:55:44.495Z,7.56
2023-01-13T04:58:29.930Z,7.56
2023-01-13T05:01:15.414Z,7.55
2023-01-13T05:04:01.063Z,7.55
2023-01-13T05:06:46.440Z,7.55
2023-01-13T05:09:31.886Z,7.56
2023-01-13T05:12:35.767Z,7.54
2023-01-13T05:15:39.697Z,7.54
2023-01-13T05:18:26.052Z,7.54
2023-01-13T05:21:31.581Z,7.54
2023-01-13T05:24:35.678Z,7.54
2023-01-13T05:27:21.133Z,7.56
2023-01-13T05:30:07.976Z,7.54
2023-01-13T05:32:53.648Z,7.53
2023-01-13T05:35:40.374Z,7.52
2023-01-13T05:38:25.951Z,7.49
2023-01-13T05:41:29.883Z,7.50
2023-01-13T05:44:15.507Z,7.50
2023-01-13T05:47:01.153Z,7.51
2023-01-13T05:49:46.400Z,7.52
2023-01-13T05:52:32.237Z,7.50
2023-01-13T05:55:17.768Z,7.48
2023-01-13T05:58:03.237Z,7.49
2023-01-13T06:00:48.624Z,7.46
2023-01-13T06:03:34.431Z,7.42
2023-01-13T06:06:20.061Z,7.39
2023-01-13T06:09:05.566Z,7.36
2023-01-13T06:11:51.081Z,7.33
2023-01-13T06:14:42.338Z,7.29
2023-01-13T06:17:28.576Z,7.23
2023-01-13T06:20:15.226Z,7.18
2023-01-13T06:23:01.449Z,7.14
2023-01-13T06:26:04.370Z,7.06
2023-01-13T06:28:50.459Z,7.03
2023-01-13T06:31:39.052Z,6.98
2023-01-13T06:34:24.765Z,6.93
2023-01-13T06:37:12.776Z,6.90
2023-01-13T06:40:01.628Z,6.88
2023-01-13T06:43:05.876Z,6.81
2023-01-13T06:45:53.737Z,6.72
2023-01-13T06:48:39.348Z,6.70
2023-01-13T06:51:24.788Z,6.65
2023-01-13T06:54:10.065Z,6.64
2023-01-13T06:56:55.274Z,6.62
2023-01-13T06:59:40.846Z,6.61
2023-01-13T07:02:27.701Z,6.60
2023-01-13T07:05:13.719Z,6.59
2023-01-13T07:07:59.284Z,6.61
2023-01-13T07:10:44.602Z,6.62
2023-01-13T07:13:48.481Z,6.65
2023-01-13T07:16:33.982Z,6.67
2023-01-13T07:19:23.817Z,6.78
2023-01-13T07:22:09.456Z,6.81
2023-01-13T07:24:54.841Z,6.87
2023-01-13T07:27:40.243Z,6.92
2023-01-13T07:30:25.819Z,6.95
2023-01-13T07:33:11.104Z,7.00
2023-01-13T07:35:58.628Z,7.06
2023-01-13T07:38:44.813Z,7.10
2023-01-13T07:41:48.945Z,7.13
2023-01-13T07:44:34.372Z,7.16
2023-01-13T07:47:23.227Z,7.23
2023-01-13T07:50:09.502Z,7.30
2023-01-13T07:52:58.347Z,7.33
2023-01-13T07:55:44.103Z,7.40
2023-01-13T07:58:29.666Z,7.45
2023-01-13T08:01:16.815Z,7.50
2023-01-13T08:04:02.676Z,7.53
2023-01-13T08:06:48.301Z,7.56
2023-01-13T08:09:33.942Z,7.59
2023-01-13T08:12:38.116Z,7.62
2023-01-13T08:15:23.483Z,7.64
2023-01-13T08:18:09.529Z,7.68
2023-01-13T08:20:55.152Z,7.69
2023-01-13T08:23:42.245Z,7.72
2023-01-13T08:26:27.934Z,7.70
2023-01-13T08:29:15.001Z,7.69
2023-01-13T08:32:00.701Z,7.70
2023-01-13T08:34:46.140Z,7.70
2023-01-13T08:37:31.399Z,7.69
2023-01-13T08:40:17.911Z,7.69
2023-01-13T08:43:03.857Z,7.69
2023-01-13T08:46:00.986Z,7.71
2023-01-13T08:48:46.481Z,7.76
2023-01-13T08:51:31.965Z,7.77
2023-01-13T08:54:18.681Z,7.82
2023-01-13T08:57:03.961Z,7.85
2023-01-13T08:59:49.292Z,7.90
2023-01-13T09:02:35.012Z,7.96
2023-01-13T09:05:20.546Z,8.03
2023-01-13T09:08:06.138Z,8.12
2023-01-13T09:10:51.823Z,8.20
2023-01-13T09:13:37.455Z,8.29
2023-01-13T09:16:22.948Z,8.40
2023-01-13T09:19:08.173Z,8.50
2023-01-13T09:21:54.923Z,8.60
2023-01-13T09:24:40.539Z,8.73
2023-01-13T09:27:25.782Z,8.83
2023-01-13T09:30:11.742Z,8.89
2023-01-13T09:33:18.794Z,8.99
2023-01-13T09:36:04.398Z,9.05
2023-01-13T09:38:50.775Z,9.11
2023-01-13T09:42:01.131Z,9.15
2023-01-13T09:44:58.462Z,9.13
2023-01-13T09:47:56.718Z,9.19
2023-01-13T09:51:04.236Z,9.23
2023-01-13T09:53:57.509Z,9.23
2023-01-13T09:56:43.057Z,9.24
2023-01-13T09:59:36.386Z,9.23
2023-01-13T10:02:48.020Z,9.22
2023-01-13T10:05:45.087Z,9.22
2023-01-13T10:08:34.557Z,9.28
2023-01-13T10:11:43.849Z,9.31
2023-01-13T10:14:43.060Z,9.34
2023-01-13T10:17:56.368Z,9.34
2023-01-13T10:21:12.659Z,9.30
2023-01-13T10:24:11.358Z,9.28
2023-01-13T10:27:02.927Z,9.25
2023-01-13T10:29:48.124Z,9.30
2023-01-13T10:32:33.420Z,9.35
2023-01-13T10:35:18.945Z,9.39
2023-01-13T10:38:04.284Z,9.46
2023-01-13T10:40:58.695Z,9.47
2023-01-13T10:43:45.686Z,9.46
2023-01-13T10:46:51.116Z,9.46
2023-01-13T10:49:38.775Z,9.54
2023-01-13T10:52:26.015Z,9.58
2023-01-13T10:55:34.708Z,9.62
2023-01-13T10:58:21.348Z,9.75
2023-01-13T11:01:09.318Z,9.86
2023-01-13T11:03:55.600Z,9.96
2023-01-13T11:06:45.970Z,10.10
2023-01-13T11:09:32.817Z,10.21
2023-01-13T11:12:33.169Z,10.23
2023-01-13T11:15:23.669Z,10.28
2023-01-13T11:18:24.325Z,10.37
2023-01-13T11:21:28.630Z,10.43
2023-01-13T11:24:23.906Z,10.46
2023-01-13T11:27:21.995Z,10.52
2023-01-13T11:30:42.518Z,10.56
2023-01-13T11:33:49.828Z,10.67
2023-01-13T11:36:41.059Z,10.75
2023-01-13T11:39:49.721Z,10.86
2023-01-13T11:43:03.680Z,10.93
2023-01-13T11:45:56.400Z,10.96
2023-01-13T11:48:43.554Z,11.02
2023-01-13T11:51:35.332Z,11.08
2023-01-13T11:54:46.021Z,11.13
2023-01-13T11:58:03.705Z,11.03
2023-01-13T12:01:02.726Z,10.87
2023-01-13T12:04:09.745Z,10.74
2023-01-13T12:07:16.342Z,10.63
2023-01-13T12:10:17.583Z,10.51
2023-01-13T12:13:22.124Z,10.40
2023-01-13T12:16:20.082Z,10.32
2023-01-13T12:19:30.207Z,10.21
2023-01-13T12:22:30.551Z,10.11
2023-01-13T12:25:39.532Z,10.02
2023-01-13T12:28:34.658Z,9.93
2023-01-13T12:31:22.073Z,9.84
2023-01-13T12:34:22.527Z,9.66
2023-01-13T12:37:44.878Z,9.41
2023-01-13T12:40:49.134Z,9.20
2023-01-13T12:43:55.854Z,9.05
2023-01-13T12:46:47.386Z,8.70
2023-01-13T12:49:34.453Z,8.17
2023-01-13T12:52:20.202Z,7.85
2023-01-13T12:55:12.489Z,7.55
2023-01-13T12:58:07.096Z,7.38
2023-01-13T13:01:10.517Z,7.28
2023-01-13T13:04:51.992Z,7.20
2023-01-13T13:07:43.723Z,7.16
2023-01-13T13:10:33.870Z,7.18
2023-01-13T13:13:48.567Z,7.22
2023-01-13T13:16:49.533Z,7.27
2023-01-13T13:19:34.910Z,7.32
2023-01-13T13:22:20.245Z,7.45
2023-01-13T13:25:05.521Z,7.59
2023-01-13T13:28:04.616Z,7.72
2023-01-13T13:31:08.196Z,7.76
2023-01-13T13:34:05.223Z,7.79
2023-01-13T13:37:06.630Z,7.80
2023-01-13T13:40:11.469Z,7.79
2023-01-13T13:43:16.500Z,7.78
2023-01-13T13:46:20.479Z,7.74
2023-01-13T13:49:05.950Z,7.71
2023-01-13T13:52:04.351Z,7.63
2023-01-13T13:54:54.054Z,7.58
2023-01-13T13:57:42.467Z,7.53
2023-01-13T14:00:34.229Z,7.45
2023-01-13T14:03:30.596Z,7.38
2023-01-13T14:06:24.357Z,7.34
2023-01-13T14:09:17.526Z,7.35
2023-01-13T14:12:06.674Z,7.32
2023-01-13T14:14:54.355Z,7.29
2023-01-13T14:17:39.742Z,7.24
2023-01-13T14:20:25.190Z,7.19
2023-01-13T14:23:18.093Z,7.16
2023-01-13T14:26:13.090Z,7.14
2023-01-13T14:29:01.173Z,7.14
2023-01-13T14:31:48.736Z,7.12
2023-01-13T14:34:35.464Z,7.10
2023-01-13T14:37:40.298Z,7.07
2023-01-13T14:40:46.845Z,7.09
2023-01-13T14:43:32.304Z,7.12
2023-01-13T14:46:19.283Z,7.10
2023-01-13T14:49:04.959Z,7.10
2023-01-13T14:51:51.283Z,7.06
2023-01-13T14:54:51.144Z,7.03
2023-01-13T14:57:39.533Z,7.03
2023-01-13T15:00:25.979Z,7.02
2023-01-13T15:03:14.705Z,6.99
2023-01-13T15:06:00.193Z,6.99
2023-01-13T15:08:45.615Z,6.97
2023-01-13T15:11:30.999Z,6.95
2023-01-13T15:14:29.992Z,6.92
2023-01-13T15:17:17.614Z,6.90
2023-01-13T15:20:03.307Z,6.89
2023-01-13T15:22:52.167Z,6.88
2023-01-13T15:25:41.322Z,6.87
2023-01-13T15:28:26.995Z,6.84
2023-01-13T15:31:12.296Z,6.82
2023-01-13T15:33:58.946Z,6.83
2023-01-13T15:36:44.656Z,6.79
2023-01-13T15:39:30.544Z,6.78
2023-01-13T15:42:34.531Z,6.77
2023-01-13T15:45:38.771Z,6.74
2023-01-13T15:48:26.303Z,6.75
2023-01-13T15:51:12.172Z,6.74
2023-01-13T15:54:02.472Z,6.71
2023-01-13T15:56:47.688Z,6.73
2023-01-13T15:59:33.897Z,6.71
2023-01-13T16:02:19.669Z,6.69
2023-01-13T16:05:06.206Z,6.66
2023-01-13T16:07:51.887Z,6.62
2023-01-13T16:10:37.032Z,6.59
2023-01-13T16:13:22.387Z,6.54
2023-01-13T16:16:20.666Z,6.52
2023-01-13T16:19:06.013Z,6.47
2023-01-13T16:21:53.004Z,6.38
2023-01-13T16:24:39.428Z,6.32
2023-01-13T16:27:25.767Z,6.25
2023-01-13T16:30:35.598Z,6.22
2023-01-13T16:33:21.198Z,6.23
2023-01-13T16:36:16.166Z,6.26
2023-01-13T16:39:02.102Z,6.29
2023-01-13T16:41:52.083Z,6.29
2023-01-13T16:44:37.554Z,6.31
2023-01-13T16:47:24.152Z,6.31
2023-01-13T16:50:22.670Z,6.28
2023-01-13T16:53:10.113Z,6.26
2023-01-13T16:55:55.456Z,6.26
2023-01-13T16:58:40.755Z,6.23
2023-01-13T17:01:34.661Z,6.19
2023-01-13T17:04:23.477Z,6.13
2023-01-13T17:07:10.876Z,6.06
2023-01-13T17:09:56.426Z,5.98
2023-01-13T17:12:42.410Z,5.91
2023-01-13T17:15:28.003Z,5.91
2023-01-13T17:18:13.931Z,5.87
2023-01-13T17:21:00.160Z,5.87
2023-01-13T17:23:45.807Z,5.86
2023-01-13T17:26:37.394Z,5.83
2023-01-13T17:29:25.173Z,5.80
2023-01-13T17:32:21.440Z,5.84
2023-01-13T17:35:07.766Z,5.82
2023-01-13T17:37:53.958Z,5.82
2023-01-13T17:40:39.441Z,5.80
2023-01-13T17:43:26.477Z,5.82
2023-01-13T17:46:13.373Z,5.82
2023-01-13T17:48:58.838Z,5.82
2023-01-13T17:51:49.088Z,5.83
2023-01-13T17:54:35.100Z,5.86
2023-01-13T17:57:20.746Z,5.91
2023-01-13T18:00:06.753Z,5.94
2023-01-13T18:02:57.518Z,5.92
2023-01-13T18:05:44.163Z,5.91
2023-01-13T18:08:29.907Z,5.89
2023-01-13T18:11:20.638Z,5.88
2023-01-13T18:14:06.618Z,5.88
2023-01-13T18:16:52.577Z,5.89
2023-01-13T18:19:56.477Z,5.89
2023-01-13T18:23:00.604Z,5.89
2023-01-13T18:26:05.555Z,5.90
2023-01-13T18:28:50.887Z,5.89
2023-01-13T18:31:36.269Z,5.91
2023-01-13T18:34:21.580Z,5.93
2023-01-13T18:37:08.351Z,5.93
2023-01-13T18:39:54.096Z,5.98
2023-01-13T18:42:52.270Z,5.95
2023-01-13T18:45:37.903Z,5.93
2023-01-13T18:48:23.353Z,5.93
2023-01-13T18:51:08.978Z,5.92
2023-01-13T18:53:54.178Z,5.94
2023-01-13T18:56:39.502Z,5.98
2023-01-13T18:59:25.330Z,6.00
2023-01-13T19:02:17.141Z,6.01
2023-01-13T19:05:03.028Z,6.00
2023-01-13T19:07:51.267Z,6.00
2023-01-13T19:10:39.735Z,6.01
2023-01-13T19:13:25.417Z,5.99
2023-01-13T19:16:10.869Z,5.98
2023-01-13T19:18:56.315Z,5.94
2023-01-13T19:21:41.631Z,5.91
2023-01-13T19:24:28.336Z,5.88
2023-01-13T19:27:15.143Z,5.84
2023-01-13T19:30:01.868Z,5.83
2023-01-13T19:32:48.355Z,5.82
2023-01-13T19:35:36.577Z,5.76
2023-01-13T19:38:23.540Z,5.74
2023-01-13T19:41:28.763Z,5.75
2023-01-13T19:44:32.932Z,5.71
2023-01-13T19:47:19.280Z,5.72
2023-01-13T19:50:08.068Z,5.71
2023-01-13T19:53:56.853Z,5.73
2023-01-13T19:56:49.118Z,5.73
2023-01-13T19:59:35.559Z,5.69
2023-01-13T20:02:28.715Z,5.72
2023-01-13T20:05:18.105Z,5.71
2023-01-13T20:08:03.507Z,5.75
2023-01-13T20:10:49.668Z,5.74
2023-01-13T20:13:35.232Z,5.70
2023-01-13T20:16:21.042Z,5.65
2023-01-13T20:19:06.302Z,5.68
2023-01-13T20:21:51.584Z,5.64
2023-01-13T20:24:37.025Z,5.63
2023-01-13T20:27:24.057Z,5.63
2023-01-13T20:30:13.420Z,5.60
2023-01-13T20:32:59.108Z,5.62
2023-01-13T20:35:45.361Z,5.67
2023-01-13T20:38:37.896Z,5.70
2023-01-13T20:41:41.851Z,5.70
2023-01-13T20:44:28.041Z,5.74
2023-01-13T20:47:14.509Z,5.79
2023-01-13T20:50:00.317Z,5.82
2023-01-13T20:52:46.413Z,5.82
2023-01-13T20:55:31.700Z,5.85
2023-01-13T20:58:17.160Z,5.85
2023-01-13T21:01:02.748Z,5.85
2023-01-13T21:03:48.476Z,5.86
2023-01-13T21:06:34.331Z,5.86
2023-01-13T21:09:19.709Z,5.88
2023-01-13T21:12:24.391Z,5.89
2023-01-13T21:15:18.029Z,5.89
2023-01-13T21:18:22.394Z,5.89
2023-01-13T21:21:13.933Z,5.87
2023-01-13T21:23:59.648Z,5.88
2023-01-13T21:26:45.538Z,5.89
2023-01-13T21:29:31.019Z,5.87
2023-01-13T21:32:16.343Z,5.87
2023-01-13T21:35:02.190Z,5.84
2023-01-13T21:37:47.635Z,5.80
2023-01-13T21:40:32.846Z,5.77
2023-01-13T21:43:53.721Z,5.69
2023-01-13T21:46:58.017Z,5.50
2023-01-13T21:49:44.653Z,5.32
2023-01-13T21:52:30.125Z,5.20
2023-01-13T21:55:28.408Z,5.10
2023-01-13T21:58:14.510Z,5.00
2023-01-13T22:01:02.418Z,4.95
2023-01-13T22:04:08.290Z,4.92
2023-01-13T22:06:53.754Z,4.85
2023-01-13T22:09:40.903Z,4.81
2023-01-13T22:12:26.931Z,4.77
2023-01-13T22:15:15.053Z,4.77
2023-01-13T22:18:00.419Z,4.77
2023-01-13T22:20:46.234Z,4.76
2023-01-13T22:23:31.694Z,4.78
2023-01-13T22:26:17.675Z,4.79
2023-01-13T22:29:03.220Z,4.81
2023-01-13T22:31:48.432Z,4.82
2023-01-13T22:34:34.212Z,4.84
2023-01-13T22:37:19.436Z,4.89
2023-01-13T22:40:06.687Z,4.92
2023-01-13T22:42:52.412Z,4.93
2023-01-13T22:45:38.997Z,4.95
2023-01-13T22:48:24.682Z,4.97
2023-01-13T22:51:13.013Z,5.00
2023-01-13T22:53:58.359Z,5.03
2023-01-13T22:56:44.335Z,5.04
2023-01-13T22:59:31.567Z,5.04
2023-01-13T23:02:17.102Z,5.04
2023-01-13T23:05:02.585Z,5.06
2023-01-13T23:07:47.913Z,5.05
2023-01-13T23:10:33.518Z,5.06
2023-01-13T23:13:19.259Z,5.06
2023-01-13T23:16:07.196Z,5.09
2023-01-13T23:18:53.611Z,5.09
2023-01-13T23:21:39.360Z,5.09
2023-01-13T23:24:26.023Z,5.08
2023-01-13T23:27:11.683Z,5.09
2023-01-13T23:29:57.085Z,5.07
2023-01-13T23:32:43.483Z,5.04
2023-01-13T23:35:36.999Z,5.06
2023-01-13T23:38:23.609Z,5.03
2023-01-13T23:41:11.015Z,5.01
2023-01-13T23:43:59.201Z,4.97
2023-01-13T23:46:44.727Z,4.92
2023-01-13T23:49:30.431Z,4.91
2023-01-13T23:52:15.831Z,4.86
2023-01-13T23:55:01.370Z,4.82
2023-01-13T23:57:46.644Z,4.80
